Time;durP1;ratioP1;P1;durP2;ratioP2;P2;SDS_P1;SDS_P2;PMS_P1;PMS_P2;Temp;Humidity;BMP_temperature;BMP_pressure;BME280_temperature;BME280_humidity;BME280_pressure;Samples;Min_cycle;Max_cycle;Signal;HPM_P1;HPM_P2
2022/04/08 00:01:23;;;;;;;;;;;22.30;49.80;;;;;;5074052;28;19924;-48
2022/04/08 00:03:52;;;;;;;;;;;22.30;49.80;;;;;;5073703;28;19924;-51
2022/04/08 00:06:19;;;;;;;;;;;22.30;49.80;;;;;;5089721;28;19979;-49
2022/04/08 00:08:46;;;;;;;;;;;22.30;49.80;;;;;;5092861;28;19969;-48
2022/04/08 00:11:13;;;;;;;;;;;22.30;49.80;;;;;;5094028;28;20337;-51
2022/04/08 00:13:40;;;;;;;;;;;22.30;49.80;;;;;;5093891;28;19977;-48
2022/04/08 00:16:08;;;;;;;;;;;22.30;49.80;;;;;;5097607;28;20383;-48
2022/04/08 00:18:35;;;;;;;;;;;22.30;49.80;;;;;;5098268;28;19931;-48
2022/04/08 00:21:03;;;;;;;;;;;22.30;49.70;;;;;;5058733;28;20396;-48
2022/04/08 00:23:31;;;;;;;;;;;22.30;49.70;;;;;;5084558;28;19979;-47
2022/04/08 00:25:58;;;;;;;;;;;22.30;49.70;;;;;;5097951;28;20291;-47
2022/04/08 00:28:25;;;;;;;;;;;22.30;49.80;;;;;;5097577;28;19924;-48
2022/04/08 00:30:52;;;;;;;;;;;22.30;49.80;;;;;;5097534;28;19953;-51
2022/04/08 00:33:19;;;;;;;;;;;22.30;49.80;;;;;;5097810;28;20357;-47
2022/04/08 00:35:46;;;;;;;;;;;22.30;49.80;;;;;;5089198;28;19931;-48
2022/04/08 00:38:13;;;;;;;;;;;22.20;49.80;;;;;;5062979;28;20293;-47
2022/04/08 00:40:40;;;;;;;;;;;22.30;49.90;;;;;;5097365;28;20023;-48
2022/04/08 00:43:13;;;;;;;;;;;22.20;49.70;;;;;;5098069;28;19931;-48
2022/04/08 00:45:40;;;;;;;;;;;22.20;49.80;;;;;;5097576;28;20346;-47
2022/04/08 00:48:08;;;;;;;;;;;22.20;49.80;;;;;;5097215;28;19928;-47
2022/04/08 00:50:36;;;;;;;;;;;22.20;49.80;;;;;;5096719;28;19985;-47
2022/04/08 00:53:04;;;;;;;;;;;22.20;49.80;;;;;;5095718;28;19967;-47
2022/04/08 00:55:31;;;;;;;;;;;22.20;49.70;;;;;;5076776;28;19976;-47
2022/04/08 00:58:03;;;;;;;;;;;22.20;49.70;;;;;;5076633;28;19932;-48
2022/04/08 01:00:36;;;;;;;;;;;22.20;49.70;;;;;;5076680;28;19962;-47
2022/04/08 01:03:03;;;;;;;;;;;22.20;49.70;;;;;;5076950;28;19932;-47
2022/04/08 01:05:34;;;;;;;;;;;22.20;49.80;;;;;;5078521;28;19932;-50
2022/04/08 01:08:02;;;;;;;;;;;22.20;49.80;;;;;;5097335;28;19928;-48
2022/04/08 01:10:29;;;;;;;;;;;22.20;49.80;;;;;;5096732;28;20300;-48
2022/04/08 01:12:56;;;;;;;;;;;22.20;49.80;;;;;;5096906;28;19924;-48
2022/04/08 01:15:25;;;;;;;;;;;22.20;49.80;;;;;;5096692;28;19928;-48
2022/04/08 01:17:52;;;;;;;;;;;22.20;49.80;;;;;;5097137;28;19924;-48
2022/04/08 01:20:19;;;;;;;;;;;22.20;49.80;;;;;;5096599;28;20296;-48
2022/04/08 01:22:46;;;;;;;;;;;22.20;49.80;;;;;;5077008;28;20011;-47
2022/04/08 01:25:13;;;;;;;;;;;22.20;49.80;;;;;;5074176;28;20452;-47
2022/04/08 01:27:40;;;;;;;;;;;22.20;49.80;;;;;;5096773;28;19924;-51
2022/04/08 01:30:08;;;;;;;;;;;22.20;49.70;;;;;;5096724;28;20315;-47
2022/04/08 01:32:36;;;;;;;;;;;22.20;49.70;;;;;;5097220;28;19954;-47
2022/04/08 01:35:03;;;;;;;;;;;22.20;49.70;;;;;;5096641;28;20295;-47
2022/04/08 01:37:30;;;;;;;;;;;22.20;49.80;;;;;;5095683;28;20341;-47
2022/04/08 01:39:57;;;;;;;;;;;22.20;49.80;;;;;;5077455;28;19925;-47
2022/04/08 01:42:24;;;;;;;;;;;22.20;49.80;;;;;;5096408;28;19978;-47
2022/04/08 01:44:53;;;;;;;;;;;22.20;49.80;;;;;;5096480;28;20356;-48
2022/04/08 01:47:20;;;;;;;;;;;22.20;49.80;;;;;;5096101;28;20383;-48
2022/04/08 01:49:47;;;;;;;;;;;22.20;49.70;;;;;;5096052;28;19924;-47
2022/04/08 01:52:14;;;;;;;;;;;22.20;49.70;;;;;;5094825;28;19981;-47
2022/04/08 01:54:41;;;;;;;;;;;22.20;49.70;;;;;;5095385;28;20299;-47
2022/04/08 01:57:08;;;;;;;;;;;22.20;49.70;;;;;;5078008;28;19924;-47
2022/04/08 01:59:35;;;;;;;;;;;22.20;49.70;;;;;;5095925;28;19924;-47
2022/04/08 02:02:02;;;;;;;;;;;22.20;49.80;;;;;;5095812;28;20417;-50
2022/04/08 02:04:30;;;;;;;;;;;22.20;49.80;;;;;;5095777;28;20383;-47
2022/04/08 02:06:57;;;;;;;;;;;22.20;49.70;;;;;;5095673;28;19977;-47
2022/04/08 02:09:24;;;;;;;;;;;22.20;49.70;;;;;;5080698;28;19943;-48
2022/04/08 02:11:51;;;;;;;;;;;22.20;49.70;;;;;;5075417;28;19975;-47
2022/04/08 02:14:18;;;;;;;;;;;22.20;49.80;;;;;;5075549;28;20357;-47
2022/04/08 02:16:45;;;;;;;;;;;22.20;49.80;;;;;;5075529;28;19958;-47
2022/04/08 02:19:12;;;;;;;;;;;22.20;49.80;;;;;;5057499;28;20439;-48
2022/04/08 02:21:39;;;;;;;;;;;22.20;49.70;;;;;;5075045;28;19929;-48
2022/04/08 02:24:07;;;;;;;;;;;22.20;49.70;;;;;;5076928;28;19969;-47
2022/04/08 02:26:34;;;;;;;;;;;22.20;49.80;;;;;;5095606;28;19959;-51
2022/04/08 02:29:01;;;;;;;;;;;22.20;49.70;;;;;;5095580;28;19971;-47
2022/04/08 02:31:28;;;;;;;;;;;22.20;49.70;;;;;;5095549;28;19924;-48
2022/04/08 02:33:55;;;;;;;;;;;22.20;49.80;;;;;;5095466;28;19924;-49
2022/04/08 02:36:22;;;;;;;;;;;22.20;49.70;;;;;;5095445;28;19977;-48
2022/04/08 02:38:49;;;;;;;;;;;22.20;50.40;;;;;;5087981;28;19972;-49
2022/04/08 02:41:16;;;;;;;;;;;22.20;49.70;;;;;;5093154;28;19924;-47
2022/04/08 02:43:43;;;;;;;;;;;22.20;49.70;;;;;;5076985;28;19924;-48
2022/04/08 02:46:10;;;;;;;;;;;22.20;49.70;;;;;;5094936;28;19924;-47
2022/04/08 02:48:37;;;;;;;;;;;22.10;49.70;;;;;;5094886;28;19977;-48
2022/04/08 02:51:04;;;;;;;;;;;22.10;49.70;;;;;;5094682;28;20443;-48
2022/04/08 02:53:31;;;;;;;;;;;22.20;49.70;;;;;;5094245;28;20004;-48
2022/04/08 02:55:58;;;;;;;;;;;22.20;49.70;;;;;;5094064;28;19931;-47
2022/04/08 02:58:26;;;;;;;;;;;22.20;49.70;;;;;;5094495;28;19969;-47
2022/04/08 03:00:53;;;;;;;;;;;22.20;49.70;;;;;;5094655;28;19973;-47
2022/04/08 03:03:20;;;;;;;;;;;22.10;49.60;;;;;;5094564;28;19931;-48
2022/04/08 03:05:47;;;;;;;;;;;22.10;49.60;;;;;;5094592;28;19924;-48
2022/04/08 03:08:14;;;;;;;;;;;22.10;49.60;;;;;;5094812;28;19928;-48
2022/04/08 03:10:41;;;;;;;;;;;22.20;49.70;;;;;;5074770;28;19924;-47
2022/04/08 03:13:08;;;;;;;;;;;22.10;49.60;;;;;;5094377;28;19977;-51
2022/04/08 03:15:35;;;;;;;;;;;22.10;49.60;;;;;;5094366;28;19935;-47
2022/04/08 03:18:02;;;;;;;;;;;22.10;49.60;;;;;;5076572;28;20418;-49
2022/04/08 03:20:29;;;;;;;;;;;22.10;49.60;;;;;;5094202;28;19977;-50
2022/04/08 03:22:56;;;;;;;;;;;22.20;49.70;;;;;;5094239;28;20375;-47
2022/04/08 03:25:23;;;;;;;;;;;22.20;49.70;;;;;;5092376;28;19928;-47
2022/04/08 03:27:50;;;;;;;;;;;22.20;49.60;;;;;;5094547;28;19924;-48
2022/04/08 03:30:17;;;;;;;;;;;22.10;49.60;;;;;;5094203;28;19924;-47
2022/04/08 03:32:44;;;;;;;;;;;22.20;49.60;;;;;;5094152;28;19925;-48
2022/04/08 03:35:11;;;;;;;;;;;22.20;49.60;;;;;;5094138;28;19979;-48
2022/04/08 03:37:38;;;;;;;;;;;22.20;49.60;;;;;;5094093;28;20433;-47
2022/04/08 03:40:05;;;;;;;;;;;22.10;49.60;;;;;;5071122;28;19929;-47
2022/04/08 03:42:32;;;;;;;;;;;22.20;49.60;;;;;;5074005;28;20330;-49
2022/04/08 03:44:59;;;;;;;;;;;22.10;49.50;;;;;;5074093;28;19978;-48
2022/04/08 03:47:26;;;;;;;;;;;22.10;49.50;;;;;;5056031;28;19924;-48
2022/04/08 03:49:53;;;;;;;;;;;22.10;49.50;;;;;;5055099;28;19977;-49
2022/04/08 03:52:20;;;;;;;;;;;22.10;49.50;;;;;;5073817;28;19930;-47
2022/04/08 03:54:47;;;;;;;;;;;22.10;49.50;;;;;;5075427;28;19969;-50
2022/04/08 03:57:14;;;;;;;;;;;22.10;49.50;;;;;;5073613;28;19933;-50
2022/04/08 03:59:42;;;;;;;;;;;22.10;49.50;;;;;;5073547;28;19931;-50
2022/04/08 04:02:09;;;;;;;;;;;22.10;49.50;;;;;;5073612;28;19978;-47
2022/04/08 04:04:36;;;;;;;;;;;22.10;49.50;;;;;;5073873;28;20006;-47
2022/04/08 04:07:03;;;;;;;;;;;22.10;49.50;;;;;;5073843;28;19956;-48
2022/04/08 04:09:30;;;;;;;;;;;22.10;49.60;;;;;;5073863;28;20330;-51
2022/04/08 04:11:57;;;;;;;;;;;22.10;49.50;;;;;;5090460;28;20302;-48
2022/04/08 04:14:24;;;;;;;;;;;22.10;49.50;;;;;;5093886;28;19960;-48
2022/04/08 04:16:51;;;;;;;;;;;22.10;49.50;;;;;;5059534;28;20283;-47
2022/04/08 04:19:18;;;;;;;;;;;22.10;49.50;;;;;;5093818;28;19971;-48
2022/04/08 04:21:47;;;;;;;;;;;22.10;49.50;;;;;;5093771;28;20371;-49
2022/04/08 04:24:15;;;;;;;;;;;22.10;49.50;;;;;;5093570;28;20431;-51
2022/04/08 04:26:42;;;;;;;;;;;22.10;49.50;;;;;;5078095;28;19925;-48
2022/04/08 04:29:11;;;;;;;;;;;22.10;49.50;;;;;;5073931;28;20384;-48
2022/04/08 04:31:38;;;;;;;;;;;22.10;49.50;;;;;;5073586;28;19925;-48
2022/04/08 04:34:05;;;;;;;;;;;22.10;49.50;;;;;;5039198;28;19936;-51
2022/04/08 04:36:32;;;;;;;;;;;22.10;49.50;;;;;;5073256;28;19924;-47
2022/04/08 04:38:59;;;;;;;;;;;22.10;49.50;;;;;;5073130;28;19924;-49
2022/04/08 04:41:26;;;;;;;;;;;22.10;49.50;;;;;;5083191;28;19982;-49
2022/04/08 04:43:53;;;;;;;;;;;22.10;49.50;;;;;;5093274;28;19971;-48
2022/04/08 04:46:24;;;;;;;;;;;22.10;49.50;;;;;;5093734;28;19968;-48
2022/04/08 04:48:51;;;;;;;;;;;22.10;49.50;;;;;;5093573;28;20392;-49
2022/04/08 04:51:18;;;;;;;;;;;22.10;49.40;;;;;;5093190;28;19975;-48
2022/04/08 04:53:45;;;;;;;;;;;22.10;49.40;;;;;;5093281;28;19928;-48
2022/04/08 04:56:12;;;;;;;;;;;22.10;49.40;;;;;;5085011;28;19974;-49
2022/04/08 04:58:39;;;;;;;;;;;22.10;49.50;;;;;;5072925;28;19932;-51
2022/04/08 05:01:06;;;;;;;;;;;22.10;49.40;;;;;;5075197;28;19931;-48
2022/04/08 05:03:39;;;;;;;;;;;22.10;49.40;;;;;;5076662;28;19978;-48
2022/04/08 05:06:05;;;;;;;;;;;22.10;49.40;;;;;;5076854;28;19924;-50
2022/04/08 05:08:32;;;;;;;;;;;22.10;49.40;;;;;;5076872;28;20003;-50
2022/04/08 05:11:00;;;;;;;;;;;22.10;49.50;;;;;;5089086;28;19928;-51
2022/04/08 05:13:27;;;;;;;;;;;22.10;49.40;;;;;;5096615;28;20379;-50
2022/04/08 05:15:56;;;;;;;;;;;22.10;49.40;;;;;;5096968;28;19946;-48
2022/04/08 05:18:23;;;;;;;;;;;22.10;49.40;;;;;;5096847;28;19993;-51
2022/04/08 05:20:52;;;;;;;;;;;22.10;49.40;;;;;;5096592;28;19928;-48
2022/04/08 05:23:20;;;;;;;;;;;22.10;49.40;;;;;;5096435;28;19924;-51
2022/04/08 05:25:47;;;;;;;;;;;22.10;49.40;;;;;;5095863;28;20291;-52
2022/04/08 05:28:15;;;;;;;;;;;22.10;49.40;;;;;;5095275;28;19924;-50
2022/04/08 05:30:43;;;;;;;;;;;22.10;49.40;;;;;;5096613;28;19925;-47
2022/04/08 05:33:15;;;;;;;;;;;22.10;49.40;;;;;;5096271;28;19971;-56
2022/04/08 05:35:42;;;;;;;;;;;22.10;49.30;;;;;;5095631;28;19924;-55
2022/04/08 05:38:09;;;;;;;;;;;22.10;49.90;;;;;;5095752;28;19973;-49
2022/04/08 05:40:36;;;;;;;;;;;22.20;51.70;;;;;;5096038;28;19924;-47
2022/04/08 05:43:03;;;;;;;;;;;22.20;53.40;;;;;;5094785;28;20414;-47
2022/04/08 05:45:30;;;;;;;;;;;22.20;53.80;;;;;;5078080;28;19963;-48
2022/04/08 05:48:01;;;;;;;;;;;22.10;53.40;;;;;;5096295;28;19924;-43
2022/04/08 05:50:28;;;;;;;;;;;22.10;54.60;;;;;;5095858;28;19947;-43
2022/04/08 05:52:55;;;;;;;;;;;22.10;53.80;;;;;;5095340;28;19928;-49
2022/04/08 05:55:22;;;;;;;;;;;22.10;53.10;;;;;;5095225;28;19924;-42
2022/04/08 05:57:53;;;;;;;;;;;22.20;53.60;;;;;;5075926;28;19932;-45
2022/04/08 06:00:21;;;;;;;;;;;22.20;53.50;;;;;;5095997;28;19924;-45
2022/04/08 06:02:48;;;;;;;;;;;22.20;53.50;;;;;;5077943;28;19924;-43
2022/04/08 06:05:18;;;;;;;;;;;22.20;53.50;;;;;;5095993;28;19928;-42
2022/04/08 06:07:46;;;;;;;;;;;22.10;53.50;;;;;;5096263;28;19928;-42
2022/04/08 06:10:18;;;;;;;;;;;22.20;53.70;;;;;;5095884;28;19999;-42
2022/04/08 06:12:47;;;;;;;;;;;22.10;53.60;;;;;;5093598;28;19924;-46
2022/04/08 06:15:15;;;;;;;;;;;22.10;53.40;;;;;;5095563;28;19930;-46
2022/04/08 06:17:42;;;;;;;;;;;22.20;53.40;;;;;;5095506;28;20475;-44
2022/04/08 06:20:09;;;;;;;;;;;22.20;53.30;;;;;;5094719;28;20379;-43
2022/04/08 06:22:40;;;;;;;;;;;22.20;53.10;;;;;;5095457;28;19932;-44
2022/04/08 06:25:08;;;;;;;;;;;22.30;53.20;;;;;;5095930;28;19970;-43
2022/04/08 06:27:34;;;;;;;;;;;22.30;53.20;;;;;;5094256;28;20551;-43
2022/04/08 06:30:03;;;;;;;;;;;22.30;53.30;;;;;;5095205;28;19971;-44
2022/04/08 06:32:30;;;;;;;;;;;22.40;53.40;;;;;;5095737;28;20273;-44
2022/04/08 06:34:57;;;;;;;;;;;22.40;53.50;;;;;;5094957;28;19924;-46
2022/04/08 06:37:30;;;;;;;;;;;22.40;53.50;;;;;;5094367;28;19946;-45
2022/04/08 06:40:01;;;;;;;;;;;22.40;53.60;;;;;;5077343;28;20019;-50
2022/04/08 06:42:28;;;;;;;;;;;22.40;53.50;;;;;;5094370;28;19970;-46
2022/04/08 06:44:55;;;;;;;;;;;22.40;53.60;;;;;;5095124;28;20411;-48
2022/04/08 06:47:24;;;;;;;;;;;22.40;53.60;;;;;;5094859;28;20029;-49
2022/04/08 06:49:51;;;;;;;;;;;22.50;53.80;;;;;;5094775;28;20445;-46
2022/04/08 06:52:17;;;;;;;;;;;22.40;53.70;;;;;;5094337;28;19970;-49
2022/04/08 06:54:44;;;;;;;;;;;22.40;53.70;;;;;;5094553;28;19973;-45
2022/04/08 06:57:11;;;;;;;;;;;22.50;53.70;;;;;;5094075;28;20011;-45
2022/04/08 06:59:41;;;;;;;;;;;22.50;53.70;;;;;;5093771;28;19984;-51
2022/04/08 07:02:08;;;;;;;;;;;22.50;53.60;;;;;;5094405;28;20380;-48
2022/04/08 07:04:36;;;;;;;;;;;22.50;53.90;;;;;;5094527;28;19934;-44
2022/04/08 07:07:06;;;;;;;;;;;22.50;54.20;;;;;;5095400;28;20325;-51
2022/04/08 07:09:34;;;;;;;;;;;22.50;53.80;;;;;;5094859;28;19999;-45
2022/04/08 07:12:02;;;;;;;;;;;22.50;54.00;;;;;;5093501;28;19969;-44
2022/04/08 07:14:29;;;;;;;;;;;22.50;54.20;;;;;;5094140;28;20292;-47
2022/04/08 07:16:56;;;;;;;;;;;22.40;54.20;;;;;;5077125;28;19924;-51
2022/04/08 07:19:23;;;;;;;;;;;22.40;54.40;;;;;;5090615;28;19924;-44
2022/04/08 07:21:50;;;;;;;;;;;22.50;55.00;;;;;;5090966;28;20010;-39
2022/04/08 07:24:18;;;;;;;;;;;22.60;55.90;;;;;;5093029;28;19928;-47
2022/04/08 07:26:45;;;;;;;;;;;22.70;56.10;;;;;;5092434;28;19932;-43
2022/04/08 07:29:13;;;;;;;;;;;22.70;56.30;;;;;;5084344;28;20413;-44
2022/04/08 07:31:40;;;;;;;;;;;22.80;56.80;;;;;;5092891;28;19924;-48
2022/04/08 07:34:07;;;;;;;;;;;22.80;56.60;;;;;;5092841;28;20310;-44
2022/04/08 07:36:34;;;;;;;;;;;22.90;56.80;;;;;;5093738;28;19930;-44
2022/04/08 07:39:01;;;;;;;;;;;22.90;56.90;;;;;;5093742;28;20044;-46
2022/04/08 07:41:28;;;;;;;;;;;22.80;56.40;;;;;;5093549;28;19924;-54
2022/04/08 07:43:55;;;;;;;;;;;22.80;56.30;;;;;;5092455;28;19927;-47
2022/04/08 07:46:22;;;;;;;;;;;22.70;56.30;;;;;;5093736;28;19931;-45
2022/04/08 07:48:49;;;;;;;;;;;22.70;56.30;;;;;;5093754;28;19946;-49
2022/04/08 07:51:16;;;;;;;;;;;22.70;56.20;;;;;;5093515;28;19950;-49
2022/04/08 07:53:43;;;;;;;;;;;22.70;56.10;;;;;;5093809;28;19989;-43
2022/04/08 07:56:10;;;;;;;;;;;22.60;56.10;;;;;;5093842;28;19928;-45
2022/04/08 07:58:37;;;;;;;;;;;22.60;56.00;;;;;;5092209;28;19924;-42
2022/04/08 08:01:04;;;;;;;;;;;22.60;56.00;;;;;;5093161;28;19924;-47
2022/04/08 08:03:34;;;;;;;;;;;22.60;56.00;;;;;;5094047;28;19945;-44
2022/04/08 08:06:03;;;;;;;;;;;22.60;55.90;;;;;;5093942;28;20003;-46
2022/04/08 08:08:30;;;;;;;;;;;22.50;55.80;;;;;;5093841;28;19928;-43
2022/04/08 08:10:57;;;;;;;;;;;22.50;55.90;;;;;;5093107;28;19932;-45
2022/04/08 08:13:24;;;;;;;;;;;22.50;55.90;;;;;;5091765;28;20350;-43
2022/04/08 08:15:51;;;;;;;;;;;22.60;56.50;;;;;;5092456;28;20391;-48
2022/04/08 08:18:21;;;;;;;;;;;22.70;56.70;;;;;;5092913;28;19938;-54
2022/04/08 08:20:49;;;;;;;;;;;22.80;57.00;;;;;;5092715;28;20000;-50
2022/04/08 08:23:16;;;;;;;;;;;22.80;57.40;;;;;;5093064;28;19999;-50
2022/04/08 08:25:44;;;;;;;;;;;22.90;57.70;;;;;;5092620;28;20014;-50
2022/04/08 08:28:18;;;;;;;;;;;23.00;58.00;;;;;;5092644;28;19924;-48
2022/04/08 08:30:45;;;;;;;;;;;23.00;58.20;;;;;;5077325;28;19974;-42
2022/04/08 08:33:12;;;;;;;;;;;23.00;58.10;;;;;;5073522;28;20023;-40
2022/04/08 08:35:45;;;;;;;;;;;23.10;57.80;;;;;;5075003;28;20335;-45
2022/04/08 08:38:12;;;;;;;;;;;23.00;57.00;;;;;;5077624;28;19928;-50
2022/04/08 08:40:42;;;;;;;;;;;23.10;57.30;;;;;;5077317;28;20357;-50
2022/04/08 08:43:14;;;;;;;;;;;23.10;57.90;;;;;;5079745;28;19924;-51
2022/04/08 08:45:43;;;;;;;;;;;23.10;58.10;;;;;;5064984;28;20281;-48
2022/04/08 08:48:10;;;;;;;;;;;23.20;58.20;;;;;;5059238;28;19977;-51
2022/04/08 08:50:37;;;;;;;;;;;23.20;58.60;;;;;;5076542;28;19928;-44
2022/04/08 08:53:04;;;;;;;;;;;23.30;58.70;;;;;;5076366;28;20377;-46
2022/04/08 08:55:31;;;;;;;;;;;23.30;58.60;;;;;;5076447;28;19970;-46
2022/04/08 08:57:58;;;;;;;;;;;23.30;58.60;;;;;;5081733;28;19973;-46
2022/04/08 09:00:25;;;;;;;;;;;23.30;58.50;;;;;;5096283;28;19947;-40
2022/04/08 09:02:52;;;;;;;;;;;23.30;58.40;;;;;;5097006;28;19928;-39
2022/04/08 09:05:21;;;;;;;;;;;23.30;57.80;;;;;;5096629;28;19967;-48
2022/04/08 09:07:54;;;;;;;;;;;23.40;57.70;;;;;;5097052;28;20333;-47
2022/04/08 09:10:28;;;;;;;;;;;23.40;57.70;;;;;;5096868;28;19924;-46
2022/04/08 09:12:56;;;;;;;;;;;23.50;57.60;;;;;;5096542;28;19924;-45
2022/04/08 09:15:24;;;;;;;;;;;23.50;57.60;;;;;;5088241;28;20282;-44
2022/04/08 09:17:51;;;;;;;;;;;23.50;57.60;;;;;;5076104;28;19971;-46
2022/04/08 09:20:19;;;;;;;;;;;23.50;57.70;;;;;;5076001;28;19925;-47
2022/04/08 09:22:54;;;;;;;;;;;23.60;57.70;;;;;;5075902;28;19986;-49
2022/04/08 09:25:24;;;;;;;;;;;23.60;57.50;;;;;;5076050;28;19931;-45
2022/04/08 09:27:51;;;;;;;;;;;23.60;57.40;;;;;;5076032;28;19947;-54
2022/04/08 09:30:18;;;;;;;;;;;23.70;57.60;;;;;;5086725;28;20033;-49
2022/04/08 09:32:45;;;;;;;;;;;23.70;57.80;;;;;;5076014;28;19970;-39
2022/04/08 09:35:19;;;;;;;;;;;23.70;57.60;;;;;;5075779;28;19924;-53
2022/04/08 09:37:59;;;;;;;;;;;23.60;57.40;;;;;;5075696;28;19936;-44
2022/04/08 09:40:33;;;;;;;;;;;23.60;57.30;;;;;;5075712;28;19982;-39
2022/04/08 09:43:00;;;;;;;;;;;23.60;57.70;;;;;;5075702;28;20376;-43
2022/04/08 09:45:30;;;;;;;;;;;23.50;58.30;;;;;;5086184;28;19935;-41
2022/04/08 09:48:01;;;;;;;;;;;23.60;57.90;;;;;;5074535;28;19974;-44
2022/04/08 09:50:31;;;;;;;;;;;23.60;57.60;;;;;;5075271;28;19928;-53
2022/04/08 09:52:58;;;;;;;;;;;23.70;58.10;;;;;;5087399;28;20031;-52
2022/04/08 09:55:25;;;;;;;;;;;23.80;58.90;;;;;;5091816;28;19924;-46
2022/04/08 09:57:56;;;;;;;;;;;23.90;59.10;;;;;;5095285;28;19924;-44
2022/04/08 10:00:27;;;;;;;;;;;23.90;59.20;;;;;;5090427;28;19924;-40
2022/04/08 10:02:55;;;;;;;;;;;23.90;58.90;;;;;;5075399;28;20008;-48
2022/04/08 10:05:22;;;;;;;;;;;24.00;58.60;;;;;;5074892;28;19924;-46
2022/04/08 10:07:52;;;;;;;;;;;24.00;58.50;;;;;;5082210;28;19947;-50
2022/04/08 10:10:22;;;;;;;;;;;23.90;58.40;;;;;;5095907;28;19924;-49
2022/04/08 10:13:21;;;;;;;;;;;23.90;58.50;;;;;;5095031;28;19924;-50
2022/04/08 10:16:09;;;;;;;;;;;23.90;58.60;;;;;;5010686;28;20515;-45
2022/04/08 10:18:40;;;;;;;;;;;23.90;58.80;;;;;;5012571;28;19973;-45
2022/04/08 10:21:10;;;;;;;;;;;23.90;58.70;;;;;;5013150;28;20368;-39
2022/04/08 10:23:40;;;;;;;;;;;24.00;58.40;;;;;;5013198;28;19979;-45
2022/04/08 10:26:16;;;;;;;;;;;23.90;58.40;;;;;;5013400;28;19976;-38
2022/04/08 10:28:42;;;;;;;;;;;23.90;57.90;;;;;;5012655;28;19965;-44
2022/04/08 10:31:16;;;;;;;;;;;24.00;57.60;;;;;;5011435;28;20369;-46
2022/04/08 10:33:48;;;;;;;;;;;24.00;57.30;;;;;;5013174;28;19925;-43
2022/04/08 10:36:16;;;;;;;;;;;24.10;57.20;;;;;;5013211;28;20346;-47
2022/04/08 10:38:43;;;;;;;;;;;24.10;56.80;;;;;;5013207;28;19925;-46
2022/04/08 10:41:11;;;;;;;;;;;24.10;56.50;;;;;;5013051;28;19973;-44
2022/04/08 10:43:48;;;;;;;;;;;24.20;56.40;;;;;;5012930;28;19929;-46
2022/04/08 10:46:32;;;;;;;;;;;24.20;56.30;;;;;;5011697;28;19969;-43
2022/04/08 10:48:59;;;;;;;;;;;24.20;56.20;;;;;;5012424;28;20004;-43
2022/04/08 10:51:30;;;;;;;;;;;24.20;56.10;;;;;;5023577;28;19924;-49
2022/04/08 10:54:04;;;;;;;;;;;24.20;56.00;;;;;;5054638;28;20327;-44
2022/04/08 10:56:34;;;;;;;;;;;24.20;56.00;;;;;;5054561;28;19932;-46
2022/04/08 10:59:03;;;;;;;;;;;24.20;55.90;;;;;;5054175;28;20403;-44
2022/04/08 11:01:34;;;;;;;;;;;24.20;55.70;;;;;;5073929;28;19925;-44
2022/04/08 11:04:03;;;;;;;;;;;24.20;55.60;;;;;;5074395;28;19924;-44
2022/04/08 11:06:31;;;;;;;;;;;24.20;55.50;;;;;;5074324;28;19924;-44
2022/04/08 11:09:05;;;;;;;;;;;24.20;55.40;;;;;;5074516;28;19928;-44
2022/04/08 11:11:33;;;;;;;;;;;24.20;55.40;;;;;;5074084;28;20347;-45
2022/04/08 11:14:01;;;;;;;;;;;24.20;55.30;;;;;;5074191;28;20415;-45
2022/04/08 11:16:30;;;;;;;;;;;24.10;55.30;;;;;;5073207;28;19963;-44
2022/04/08 11:18:57;;;;;;;;;;;24.10;55.20;;;;;;5073972;28;20033;-44
2022/04/08 11:21:24;;;;;;;;;;;24.10;55.10;;;;;;5074349;28;19974;-45
2022/04/08 11:23:59;;;;;;;;;;;24.20;55.10;;;;;;5091038;28;19924;-44
2022/04/08 11:26:28;;;;;;;;;;;24.20;55.00;;;;;;5094362;28;19977;-46
2022/04/08 11:29:11;;;;;;;;;;;24.10;54.90;;;;;;5094180;28;19924;-43
2022/04/08 11:31:39;;;;;;;;;;;24.10;55.10;;;;;;5093215;28;19924;-44
2022/04/08 11:34:06;;;;;;;;;;;24.10;55.10;;;;;;5094061;28;20436;-44
2022/04/08 11:36:35;;;;;;;;;;;24.10;54.80;;;;;;5094010;28;19977;-45
2022/04/08 11:39:05;;;;;;;;;;;24.10;54.80;;;;;;5094389;28;19939;-46
2022/04/08 11:41:34;;;;;;;;;;;24.10;55.30;;;;;;5094257;28;19947;-43
2022/04/08 11:44:03;;;;;;;;;;;24.10;54.70;;;;;;5094274;28;19924;-46
2022/04/08 11:46:30;;;;;;;;;;;24.10;54.60;;;;;;5092773;28;19928;-44
2022/04/08 11:48:57;;;;;;;;;;;24.10;54.50;;;;;;5094197;28;19928;-44
2022/04/08 11:51:24;;;;;;;;;;;24.10;54.40;;;;;;5094137;28;20273;-45
2022/04/08 11:53:53;;;;;;;;;;;24.10;54.40;;;;;;5093839;28;19923;-44
2022/04/08 11:56:24;;;;;;;;;;;24.10;54.40;;;;;;5093432;28;19928;-45
2022/04/08 11:58:56;;;;;;;;;;;24.10;54.20;;;;;;5094982;28;19927;-44
2022/04/08 12:01:23;;;;;;;;;;;24.10;54.10;;;;;;5075270;28;19947;-44
2022/04/08 12:03:52;;;;;;;;;;;24.10;54.00;;;;;;5093778;28;19977;-44
2022/04/08 12:06:19;;;;;;;;;;;24.10;53.90;;;;;;5093715;28;20380;-46
2022/04/08 12:08:47;;;;;;;;;;;24.10;53.90;;;;;;5093700;28;20425;-44
2022/04/08 12:11:14;;;;;;;;;;;24.10;53.80;;;;;;5096173;28;19975;-45
2022/04/08 12:13:42;;;;;;;;;;;24.10;53.80;;;;;;5097749;28;20291;-43
2022/04/08 12:16:10;;;;;;;;;;;24.10;53.80;;;;;;5096380;28;19928;-44
2022/04/08 12:18:46;;;;;;;;;;;24.10;53.70;;;;;;5098092;28;19924;-45
2022/04/08 12:21:12;;;;;;;;;;;24.10;53.70;;;;;;5097803;28;19994;-44
2022/04/08 12:23:40;;;;;;;;;;;24.10;54.30;;;;;;5097552;28;19971;-45
2022/04/08 12:26:07;;;;;;;;;;;24.10;53.60;;;;;;5097731;28;19924;-47
2022/04/08 12:28:35;;;;;;;;;;;24.00;53.60;;;;;;5097921;28;19924;-44
2022/04/08 12:31:15;;;;;;;;;;;24.00;53.50;;;;;;5096751;28;19967;-45
2022/04/08 12:33:44;;;;;;;;;;;24.00;53.50;;;;;;5097966;28;19928;-44
2022/04/08 12:36:12;;;;;;;;;;;24.00;53.50;;;;;;5096404;28;19928;-45
2022/04/08 12:38:39;;;;;;;;;;;24.00;53.40;;;;;;5097761;28;19924;-46
2022/04/08 12:41:08;;;;;;;;;;;24.00;53.40;;;;;;5097585;28;19924;-44
2022/04/08 12:43:35;;;;;;;;;;;24.00;53.30;;;;;;5097641;28;20014;-47
2022/04/08 12:46:02;;;;;;;;;;;24.00;53.30;;;;;;5096427;28;19970;-48
2022/04/08 12:48:32;;;;;;;;;;;24.00;53.30;;;;;;5097634;28;19924;-46
2022/04/08 12:51:00;;;;;;;;;;;24.00;53.30;;;;;;5097050;28;19924;-44
2022/04/08 12:53:29;;;;;;;;;;;24.00;53.30;;;;;;5097170;28;19924;-44
2022/04/08 12:55:56;;;;;;;;;;;23.90;53.20;;;;;;5097075;28;19924;-48
2022/04/08 12:58:24;;;;;;;;;;;23.90;53.20;;;;;;5096146;28;20433;-45
2022/04/08 13:00:54;;;;;;;;;;;23.90;53.20;;;;;;5096545;28;19928;-44
2022/04/08 13:03:21;;;;;;;;;;;23.90;53.20;;;;;;5097497;28;19924;-44
2022/04/08 13:05:49;;;;;;;;;;;23.90;53.20;;;;;;5097183;28;19963;-44
2022/04/08 13:08:16;;;;;;;;;;;23.90;53.20;;;;;;5097240;28;19969;-44
2022/04/08 13:10:44;;;;;;;;;;;23.80;53.20;;;;;;5096815;28;20383;-45
2022/04/08 13:13:11;;;;;;;;;;;23.80;53.20;;;;;;5096987;28;19993;-44
2022/04/08 13:15:38;;;;;;;;;;;23.80;53.20;;;;;;5095811;28;20088;-47
2022/04/08 13:18:06;;;;;;;;;;;23.80;53.20;;;;;;5076888;28;19924;-44
2022/04/08 13:20:33;;;;;;;;;;;23.70;53.10;;;;;;5076554;28;20262;-45
2022/04/08 13:23:01;;;;;;;;;;;23.70;53.20;;;;;;5075776;28;19924;-44
2022/04/08 13:25:28;;;;;;;;;;;23.70;53.20;;;;;;5076155;28;19928;-46
2022/04/08 13:27:55;;;;;;;;;;;23.70;53.20;;;;;;5076221;28;19974;-46
2022/04/08 13:30:22;;;;;;;;;;;23.60;53.20;;;;;;5076225;28;20453;-49
2022/04/08 13:32:49;;;;;;;;;;;23.60;53.30;;;;;;5093142;28;19927;-46
2022/04/08 13:35:16;;;;;;;;;;;23.60;53.30;;;;;;5096215;28;19924;-47
2022/04/08 13:37:43;;;;;;;;;;;23.50;53.20;;;;;;5097423;28;19924;-44
2022/04/08 13:40:10;;;;;;;;;;;23.50;53.40;;;;;;5096249;28;20411;-44
2022/04/08 13:42:38;;;;;;;;;;;23.50;53.40;;;;;;5096295;28;19971;-44
2022/04/08 13:45:06;;;;;;;;;;;23.50;53.50;;;;;;5096517;28;20326;-46
2022/04/08 13:47:34;;;;;;;;;;;23.50;53.50;;;;;;5095173;28;20376;-45
2022/04/08 13:50:01;;;;;;;;;;;23.40;53.40;;;;;;5096234;28;19930;-45
2022/04/08 13:52:28;;;;;;;;;;;23.40;53.40;;;;;;5095912;28;20395;-44
2022/04/08 13:54:57;;;;;;;;;;;23.30;53.40;;;;;;5096252;28;19924;-44
2022/04/08 13:57:24;;;;;;;;;;;23.30;53.50;;;;;;5095841;28;19924;-44
2022/04/08 13:59:51;;;;;;;;;;;23.30;53.50;;;;;;5094842;28;19930;-47
2022/04/08 14:02:18;;;;;;;;;;;23.30;53.50;;;;;;5094852;28;19928;-46
2022/04/08 14:04:45;;;;;;;;;;;23.30;53.50;;;;;;5096722;28;19924;-44
2022/04/08 14:07:12;;;;;;;;;;;23.30;53.50;;;;;;5096119;28;20337;-45
2022/04/08 14:09:39;;;;;;;;;;;23.30;53.50;;;;;;5096027;28;19977;-46
2022/04/08 14:12:11;;;;;;;;;;;23.30;53.50;;;;;;5095590;28;19970;-44
2022/04/08 14:14:40;;;;;;;;;;;23.20;53.40;;;;;;5095786;28;19953;-44
2022/04/08 14:17:27;;;;;;;;;;;23.20;53.40;;;;;;5094711;28;20007;-46
2022/04/08 14:19:54;;;;;;;;;;;23.20;53.50;;;;;;5095517;28;19924;-44
2022/04/08 14:22:22;;;;;;;;;;;23.20;53.50;;;;;;5095072;28;19924;-44